Time;durP1;ratioP1;P1;durP2;ratioP2;P2;SDS_P1;SDS_P2;PMS_P1;PMS_P2;Temp;Humidity;BMP_temperature;BMP_pressure;BME280_temperature;BME280_humidity;BME280_pressure;Samples;Min_cycle;Max_cycle;Signal;HPM_P1;HPM_P2
2022/10/19 00:01:16;;;;;;;4.18;1.70;;;11.00;99.90;;;;;;5059898;28;20059;-76
2022/10/19 00:03:43;;;;;;;7.38;1.85;;;11.00;99.90;;;;;;5083339;28;20036;-76
2022/10/19 00:06:16;;;;;;;3.55;1.50;;;11.10;99.90;;;;;;5090798;28;20067;-76
2022/10/19 00:08:42;;;;;;;4.30;1.38;;;11.10;99.90;;;;;;5099576;28;20031;-77
2022/10/19 00:11:08;;;;;;;4.45;1.70;;;11.10;99.90;;;;;;5057070;28;20040;-77
2022/10/19 00:13:34;;;;;;;8.55;1.98;;;11.10;99.90;;;;;;5087568;28;20107;-76
2022/10/19 00:16:00;;;;;;;6.35;1.92;;;11.10;99.90;;;;;;5086265;28;20031;-76
2022/10/19 00:18:26;;;;;;;3.67;1.58;;;11.00;99.90;;;;;;5084789;28;20071;-76
2022/10/19 00:20:52;;;;;;;4.85;1.40;;;11.10;99.90;;;;;;5094390;28;20236;-76
2022/10/19 00:23:18;;;;;;;6.07;1.50;;;11.10;99.90;;;;;;5093039;28;20334;-74
2022/10/19 00:25:54;;;;;;;7.68;1.63;;;11.10;99.90;;;;;;5076222;28;20028;-75
2022/10/19 00:28:20;;;;;;;8.02;1.30;;;11.20;99.90;;;;;;5095637;28;20092;-76
2022/10/19 00:30:46;;;;;;;6.47;2.00;;;11.20;99.90;;;;;;5084256;28;20059;-76
2022/10/19 00:36:38;;;;;;;4.03;1.23;;;11.20;99.90;;;;;;5094814;28;20091;-76
2022/10/19 00:39:13;;;;;;;6.95;1.50;;;11.20;99.90;;;;;;5093871;28;20058;-75
2022/10/19 00:41:39;;;;;;;3.60;1.33;;;11.20;99.90;;;;;;5090520;28;20047;-77
2022/10/19 00:44:12;;;;;;;5.05;1.70;;;11.30;99.90;;;;;;5063517;28;20323;-75
2022/10/19 00:46:43;;;;;;;3.17;1.23;;;11.30;99.90;;;;;;5089404;28;20379;-78
2022/10/19 00:49:20;;;;;;;3.78;1.42;;;11.20;99.90;;;;;;5079127;28;20033;-76
2022/10/19 00:51:52;;;;;;;5.75;1.30;;;11.30;99.90;;;;;;5101133;28;20104;-74
2022/10/19 00:54:19;;;;;;;4.25;1.10;;;11.30;99.90;;;;;;5094743;28;20032;-77
2022/10/19 00:56:48;;;;;;;5.72;1.27;;;11.30;99.90;;;;;;5075213;28;20129;-78
2022/10/19 00:59:17;;;;;;;9.38;1.30;;;11.30;99.90;;;;;;5084066;28;20039;-76
2022/10/19 01:01:44;;;;;;;3.53;1.40;;;11.30;99.90;;;;;;5083582;28;20032;-78
2022/10/19 01:04:11;;;;;;;3.60;1.30;;;11.40;99.90;;;;;;5113011;28;20078;-75
2022/10/19 01:06:38;;;;;;;2.40;0.90;;;11.30;99.90;;;;;;5079899;28;20021;-76
2022/10/19 01:09:05;;;;;;;6.32;1.45;;;11.30;99.90;;;;;;5076631;28;20040;-75
2022/10/19 01:11:45;;;;;;;5.03;1.23;;;11.30;99.90;;;;;;5092337;28;20028;-75
2022/10/19 01:14:19;;;;;;;8.85;1.38;;;11.40;99.90;;;;;;5088686;28;20039;-76
2022/10/19 01:16:45;;;;;;;6.63;1.23;;;11.40;99.90;;;;;;5088927;28;20122;-76
2022/10/19 01:19:58;;;;;;;6.50;1.15;;;11.40;99.90;;;;;;5083535;28;20048;-74
2022/10/19 01:23:09;;;;;;;5.30;1.40;;;11.30;99.90;;;;;;5044986;28;20070;-75
2022/10/19 01:25:43;;;;;;;7.20;1.30;;;11.40;99.90;;;;;;5072604;28;20052;-75
2022/10/19 01:28:45;;;;;;;;;;;11.40;99.90;;;;;;5081044;28;20257;-75
2022/10/19 01:31:16;;;;;;;4.05;1.15;;;11.30;99.90;;;;;;5032193;28;19921;-76
2022/10/19 01:34:03;;;;;;;3.38;0.80;;;11.50;99.90;;;;;;5066686;28;20153;-75
2022/10/19 01:36:38;;;;;;;3.65;0.80;;;11.40;99.90;;;;;;5073450;28;20037;-74
2022/10/19 01:39:06;;;;;;;;;;;11.50;99.90;;;;;;5088911;28;20028;-74
2022/10/19 01:41:40;;;;;;;5.70;1.00;;;11.40;99.90;;;;;;5105805;28;19976;-77
2022/10/19 01:44:35;;;;;;;3.25;1.17;;;11.40;99.90;;;;;;5085360;28;20028;-75
2022/10/19 01:47:29;;;;;;;4.85;1.92;;;11.40;99.90;;;;;;5088680;28;20043;-75
2022/10/19 01:50:01;;;;;;;8.13;1.15;;;11.50;99.90;;;;;;5098369;28;20274;-77
2022/10/19 01:52:28;;;;;;;8.70;2.05;;;11.40;99.90;;;;;;5089402;28;20071;-77
2022/10/19 01:54:57;;;;;;;5.68;1.00;;;11.50;99.90;;;;;;5056341;28;20039;-77
2022/10/19 01:57:39;;;;;;;4.80;1.20;;;11.50;99.90;;;;;;5097761;28;20051;-76
2022/10/19 02:00:08;;;;;;;3.72;0.93;;;11.40;99.90;;;;;;5107004;28;20054;-76
2022/10/19 02:02:40;;;;;;;5.20;1.40;;;11.40;99.90;;;;;;5088973;28;20076;-75
2022/10/19 02:05:07;;;;;;;4.43;0.90;;;11.50;99.90;;;;;;5085758;28;20035;-75
2022/10/19 02:07:36;;;;;;;4.57;1.15;;;11.50;99.90;;;;;;5093058;28;20039;-75
2022/10/19 02:10:02;;;;;;;4.93;1.20;;;11.50;99.90;;;;;;5084681;28;20794;-75
2022/10/19 02:12:30;;;;;;;3.45;0.80;;;11.40;99.90;;;;;;5091017;28;20039;-75
2022/10/19 02:14:59;;;;;;;6.32;1.08;;;11.30;99.90;;;;;;5084015;28;20036;-75
2022/10/19 02:17:29;;;;;;;4.57;1.20;;;11.30;99.90;;;;;;5066279;28;20297;-75
2022/10/19 02:19:55;;;;;;;7.20;1.50;;;11.40;99.90;;;;;;5081144;28;20468;-74
2022/10/19 02:22:21;;;;;;;7.82;1.23;;;11.30;99.90;;;;;;5089813;28;20059;-75
2022/10/19 02:24:47;;;;;;;5.22;1.08;;;11.40;99.90;;;;;;5060779;28;20063;-76
2022/10/19 02:27:13;;;;;;;5.65;1.10;;;11.30;99.90;;;;;;5068081;28;20044;-74
2022/10/19 02:29:39;;;;;;;7.40;0.93;;;11.30;99.90;;;;;;5089404;28;20376;-74
2022/10/19 02:32:05;;;;;;;4.50;1.10;;;11.30;99.90;;;;;;5083230;28;20200;-75
2022/10/19 02:34:32;;;;;;;4.07;1.15;;;11.20;99.90;;;;;;5087570;28;20028;-75
2022/10/19 02:36:58;;;;;;;4.50;1.27;;;11.30;99.90;;;;;;5093558;28;20050;-75
2022/10/19 02:39:24;;;;;;;8.15;1.50;;;11.20;99.90;;;;;;5086467;28;20032;-75
2022/10/19 02:42:13;;;;;;;6.68;1.40;;;11.20;99.90;;;;;;5082702;28;20071;-75
2022/10/19 02:44:56;;;;;;;4.85;1.50;;;11.10;99.90;;;;;;5086551;28;20055;-74
2022/10/19 02:47:30;;;;;;;6.55;1.10;;;11.10;99.90;;;;;;5087574;28;20039;-74
2022/10/19 02:49:56;;;;;;;8.75;1.50;;;10.90;99.90;;;;;;5081022;28;20151;-74
2022/10/19 02:52:21;;;;;;;6.88;1.58;;;10.90;99.90;;;;;;5096933;28;20036;-75
2022/10/19 02:54:47;;;;;;;7.07;1.23;;;10.80;99.90;;;;;;5076930;28;20048;-75
2022/10/19 02:57:24;;;;;;;6.72;1.40;;;10.60;99.90;;;;;;5055595;28;21934;-75
2022/10/19 02:59:53;;;;;;;9.15;1.13;;;10.60;99.90;;;;;;5096761;28;20137;-75
2022/10/19 03:02:20;;;;;;;5.70;1.60;;;10.60;99.90;;;;;;5104915;28;20074;-75
2022/10/19 03:04:46;;;;;;;9.57;1.15;;;10.50;99.90;;;;;;5076729;28;20052;-75
2022/10/19 03:07:14;;;;;;;6.90;1.30;;;10.60;99.90;;;;;;5057390;28;20031;-74
2022/10/19 03:09:43;;;;;;;5.22;1.52;;;10.60;99.90;;;;;;5100094;28;20073;-75
2022/10/19 03:12:10;;;;;;;2.67;1.15;;;10.40;99.90;;;;;;5092416;28;20033;-75
2022/10/19 03:14:35;;;;;;;8.20;1.52;;;10.30;99.90;;;;;;5099421;28;20195;-75
2022/10/19 03:17:02;;;;;;;4.95;1.45;;;10.10;99.90;;;;;;5074301;28;20067;-76
2022/10/19 03:19:27;;;;;;;11.88;2.55;;;10.10;99.90;;;;;;5082422;28;20029;-75
2022/10/19 03:21:53;;;;;;;6.38;1.35;;;10.20;99.90;;;;;;5081494;28;20047;-75
2022/10/19 03:24:19;;;;;;;4.90;1.58;;;10.20;99.90;;;;;;5087054;28;20044;-76
2022/10/19 03:26:45;;;;;;;9.35;1.58;;;10.20;99.90;;;;;;5100862;28;20180;-76
2022/10/19 03:29:10;;;;;;;7.80;1.40;;;10.30;99.90;;;;;;5082963;28;20040;-74
2022/10/19 03:31:36;;;;;;;4.85;1.20;;;10.30;99.90;;;;;;5075391;28;20056;-74
2022/10/19 03:34:02;;;;;;;8.05;2.20;;;10.10;99.90;;;;;;5099668;28;20036;-74
2022/10/19 03:36:30;;;;;;;6.35;1.85;;;9.90;99.90;;;;;;5071711;28;20032;-75
2022/10/19 03:38:59;;;;;;;5.50;1.30;;;9.90;99.90;;;;;;5117099;28;20210;-75
2022/10/19 03:41:28;;;;;;;8.02;1.60;;;9.90;99.90;;;;;;5086236;28;20044;-75
2022/10/19 03:43:54;;;;;;;9.10;1.20;;;9.90;99.90;;;;;;5068707;28;20048;-75
2022/10/19 03:46:20;;;;;;;6.82;1.30;;;9.90;99.90;;;;;;5057765;28;20115;-75
2022/10/19 03:48:47;;;;;;;9.50;1.65;;;10.00;99.90;;;;;;5070833;28;20376;-75
2022/10/19 03:51:20;;;;;;;11.52;1.30;;;10.00;99.90;;;;;;5103373;28;20036;-75
2022/10/19 03:53:46;;;;;;;3.85;1.15;;;10.10;99.90;;;;;;5100334;28;20066;-75
2022/10/19 03:56:17;;;;;;;7.35;1.05;;;10.00;99.90;;;;;;5088805;28;20310;-76
2022/10/19 03:58:45;;;;;;;7.40;1.20;;;10.10;99.90;;;;;;5110193;28;20036;-73
2022/10/19 04:01:14;;;;;;;8.35;1.52;;;10.00;99.90;;;;;;5075184;28;20393;-73
2022/10/19 04:03:40;;;;;;;9.15;1.55;;;10.10;99.90;;;;;;5101188;28;20063;-76
2022/10/19 04:06:09;;;;;;;10.77;1.63;;;10.10;99.90;;;;;;5091497;28;20211;-74
2022/10/19 04:08:35;;;;;;;7.03;1.30;;;10.10;99.90;;;;;;5082502;28;20040;-75
2022/10/19 04:11:22;;;;;;;6.78;1.55;;;10.10;99.90;;;;;;5069798;28;20107;-75
2022/10/19 04:13:49;;;;;;;6.47;1.20;;;10.20;99.90;;;;;;5071280;28;20108;-75
2022/10/19 04:16:16;;;;;;;11.00;1.65;;;10.10;99.90;;;;;;5070548;28;20036;-76
2022/10/19 04:18:42;;;;;;;9.50;1.70;;;10.20;99.90;;;;;;5079513;28;20045;-76
2022/10/19 04:21:37;;;;;;;6.38;1.00;;;10.10;99.90;;;;;;5086302;28;20039;-75
2022/10/19 04:24:14;;;;;;;5.40;1.23;;;10.10;99.90;;;;;;5107330;28;20024;-75
2022/10/19 04:26:46;;;;;;;7.75;1.40;;;10.00;99.90;;;;;;5083231;28;20113;-75
2022/10/19 04:29:12;;;;;;;8.55;1.48;;;10.10;99.90;;;;;;5100568;28;20107;-75
2022/10/19 04:31:39;;;;;;;7.53;1.75;;;10.10;99.90;;;;;;5072624;28;20107;-75
2022/10/19 04:34:06;;;;;;;7.65;1.83;;;10.20;99.90;;;;;;5088640;28;20333;-74
2022/10/19 04:36:32;;;;;;;8.77;1.52;;;10.30;99.90;;;;;;5079835;28;20199;-75
2022/10/19 04:38:58;;;;;;;6.43;1.35;;;10.30;99.90;;;;;;5066409;28;20091;-75
2022/10/19 04:41:24;;;;;;;4.97;1.40;;;10.50;99.90;;;;;;5099199;28;20058;-75
2022/10/19 04:43:59;;;;;;;9.30;1.40;;;10.40;99.90;;;;;;5076988;28;20150;-75
2022/10/19 04:46:26;;;;;;;11.60;1.80;;;10.40;99.90;;;;;;5100715;28;20096;-74
2022/10/19 04:48:53;;;;;;;7.55;1.30;;;10.50;99.90;;;;;;5098853;28;20206;-74
2022/10/19 04:51:19;;;;;;;8.10;1.58;;;10.60;99.90;;;;;;5067975;28;20040;-74
2022/10/19 04:53:45;;;;;;;6.85;1.50;;;10.70;99.90;;;;;;5086323;28;20054;-74
2022/10/19 04:56:18;;;;;;;9.98;2.03;;;10.70;99.90;;;;;;5096596;28;20040;-74
2022/10/19 04:58:44;;;;;;;10.82;1.70;;;10.80;99.90;;;;;;5079909;28;20067;-75
2022/10/19 05:01:18;;;;;;;8.50;1.83;;;10.70;99.90;;;;;;5088425;28;20081;-74
2022/10/19 05:03:45;;;;;;;13.18;1.90;;;10.70;99.90;;;;;;5099595;28;20040;-76
2022/10/19 05:06:12;;;;;;;5.60;1.20;;;10.70;99.90;;;;;;5095642;28;20027;-73
2022/10/19 05:08:38;;;;;;;15.88;2.47;;;10.70;99.90;;;;;;5107980;28;20041;-76
2022/10/19 05:11:07;;;;;;;10.02;1.73;;;10.60;99.90;;;;;;5058555;28;20031;-76
2022/10/19 05:13:33;;;;;;;8.50;1.75;;;10.60;99.90;;;;;;5081596;28;20032;-76
2022/10/19 05:16:00;;;;;;;10.00;1.90;;;10.60;99.90;;;;;;5077431;28;20047;-75
2022/10/19 05:18:26;;;;;;;9.63;1.67;;;10.60;99.90;;;;;;5096139;28;20101;-72
2022/10/19 05:21:26;;;;;;;9.85;2.00;;;10.60;99.90;;;;;;5108636;28;20493;-75
2022/10/19 05:23:53;;;;;;;5.90;1.50;;;10.60;99.90;;;;;;5090718;28;20107;-74
2022/10/19 05:26:21;;;;;;;12.07;1.50;;;10.50;99.90;;;;;;5100320;28;20095;-75
2022/10/19 05:28:55;;;;;;;6.05;1.30;;;10.50;99.90;;;;;;5094090;28;20084;-75
2022/10/19 05:31:26;;;;;;;9.88;1.65;;;10.60;99.90;;;;;;5114403;28;20048;-74
2022/10/19 05:33:51;;;;;;;9.40;1.40;;;10.60;99.90;;;;;;5098631;28;20032;-74
2022/10/19 05:36:19;;;;;;;8.25;1.65;;;10.70;99.90;;;;;;5074858;28;20085;-76
2022/10/19 05:38:47;;;;;;;7.78;1.65;;;10.60;99.90;;;;;;5086949;28;20256;-69
2022/10/19 05:41:14;;;;;;;5.55;1.38;;;10.50;99.90;;;;;;5079509;28;20153;-77
2022/10/19 05:43:41;;;;;;;6.82;1.65;;;10.60;99.90;;;;;;5081914;28;20039;-76
2022/10/19 05:46:09;;;;;;;6.85;1.33;;;10.60;99.90;;;;;;5085963;28;20265;-76
2022/10/19 05:48:35;;;;;;;11.40;1.60;;;10.70;99.90;;;;;;5100237;28;20228;-75
2022/10/19 05:51:04;;;;;;;10.63;2.50;;;10.70;99.90;;;;;;5122776;28;20226;-75
2022/10/19 05:53:31;;;;;;;5.43;1.48;;;10.70;99.90;;;;;;5098623;28;20354;-76
2022/10/19 05:55:57;;;;;;;7.40;1.45;;;10.70;99.90;;;;;;5095698;28;20107;-75
2022/10/19 05:58:23;;;;;;;8.05;1.77;;;10.70;99.90;;;;;;5092755;28;20036;-75
2022/10/19 06:00:56;;;;;;;6.07;1.13;;;10.60;99.90;;;;;;5085936;28;20326;-76
2022/10/19 06:03:23;;;;;;;5.97;1.42;;;10.70;99.90;;;;;;5069809;28;20105;-74
2022/10/19 06:05:49;;;;;;;8.68;1.65;;;10.60;99.90;;;;;;5112576;28;20046;-75
2022/10/19 06:08:16;;;;;;;5.03;1.52;;;10.60;99.90;;;;;;5079018;28;20038;-76
2022/10/19 06:10:43;;;;;;;8.80;1.58;;;10.60;99.90;;;;;;5050799;28;20036;-75
2022/10/19 06:13:09;;;;;;;5.47;1.40;;;10.60;99.90;;;;;;5092180;28;20024;-75
2022/10/19 06:15:36;;;;;;;9.13;1.70;;;10.70;99.90;;;;;;5105454;28;20031;-76
2022/10/19 06:18:09;;;;;;;6.78;1.60;;;10.70;99.90;;;;;;5088605;28;20360;-76
2022/10/19 06:20:41;;;;;;;12.30;1.70;;;10.70;99.90;;;;;;5090170;28;20044;-76
2022/10/19 06:23:08;;;;;;;7.95;2.17;;;10.70;99.90;;;;;;5085626;28;20046;-76
2022/10/19 06:25:36;;;;;;;6.15;1.48;;;10.70;99.90;;;;;;5104780;28;20021;-77
2022/10/19 06:28:02;;;;;;;5.82;1.52;;;10.70;99.90;;;;;;5098862;28;20326;-77
2022/10/19 06:30:28;;;;;;;7.88;1.70;;;10.80;99.90;;;;;;5103130;28;20028;-75
2022/10/19 06:32:54;;;;;;;8.82;1.95;;;10.80;99.90;;;;;;5069312;28;20508;-74
2022/10/19 06:35:20;;;;;;;4.82;1.45;;;10.80;99.90;;;;;;5080033;28;20172;-75
2022/10/19 06:37:45;;;;;;;6.68;1.50;;;10.80;99.90;;;;;;5101126;28;20036;-77
2022/10/19 06:40:11;;;;;;;8.40;1.80;;;10.90;99.90;;;;;;5079706;28;20042;-75
2022/10/19 06:42:40;;;;;;;5.25;1.33;;;10.80;99.90;;;;;;5095127;28;20168;-73
2022/10/19 06:45:08;;;;;;;10.10;1.63;;;10.90;99.90;;;;;;5087474;28;20033;-74
2022/10/19 06:47:34;;;;;;;6.80;1.83;;;10.90;99.90;;;;;;5065326;28;20031;-75
2022/10/19 06:50:01;;;;;;;5.97;1.10;;;10.90;99.90;;;;;;5097264;28;20036;-74
2022/10/19 06:52:26;;;;;;;7.85;1.70;;;11.00;99.90;;;;;;5101964;28;20107;-74
2022/10/19 06:54:52;;;;;;;6.82;1.58;;;11.00;99.90;;;;;;5092571;28;20025;-75
2022/10/19 06:57:18;;;;;;;6.22;1.65;;;11.00;99.90;;;;;;5069999;28;20032;-74
2022/10/19 06:59:43;;;;;;;5.72;1.08;;;10.90;99.90;;;;;;5066897;28;20215;-74
2022/10/19 07:02:10;;;;;;;7.25;1.55;;;11.00;99.90;;;;;;5080349;28;20311;-73
2022/10/19 07:04:36;;;;;;;5.75;1.30;;;11.00;99.90;;;;;;5080201;28;20037;-75
2022/10/19 07:07:02;;;;;;;6.30;1.42;;;11.10;99.90;;;;;;5064579;28;20162;-75
2022/10/19 07:09:28;;;;;;;7.97;1.40;;;11.00;99.90;;;;;;5077148;28;20031;-74
2022/10/19 07:11:53;;;;;;;7.30;1.58;;;11.10;99.90;;;;;;5077688;28;20051;-75
2022/10/19 07:14:19;;;;;;;7.35;1.80;;;11.10;99.90;;;;;;5072618;28;20348;-74
2022/10/19 07:16:45;;;;;;;18.70;2.58;;;11.10;99.90;;;;;;5086831;28;20095;-74
2022/10/19 07:19:12;;;;;;;8.27;1.85;;;11.20;99.90;;;;;;5096870;28;20321;-74
2022/10/19 07:21:40;;;;;;;5.90;1.33;;;11.20;99.90;;;;;;5098007;28;20044;-76
2022/10/19 07:24:07;;;;;;;7.22;1.60;;;11.20;99.90;;;;;;5071048;28;20095;-76
2022/10/19 07:26:33;;;;;;;8.02;2.05;;;11.20;99.90;;;;;;5083955;28;20073;-74
2022/10/19 07:28:59;;;;;;;4.78;1.45;;;11.40;99.90;;;;;;5070747;28;20071;-76
2022/10/19 07:31:27;;;;;;;6.90;1.58;;;11.30;99.90;;;;;;5101097;28;20035;-75
2022/10/19 07:33:58;;;;;;;5.72;1.58;;;11.40;99.90;;;;;;5093959;28;20042;-74
2022/10/19 07:36:24;;;;;;;6.70;2.00;;;11.40;99.90;;;;;;5099625;28;20138;-76
2022/10/19 07:38:50;;;;;;;11.82;1.80;;;11.40;99.90;;;;;;5068290;28;20032;-75
2022/10/19 07:41:18;;;;;;;5.70;1.83;;;11.50;99.90;;;;;;5085710;28;20103;-75
2022/10/19 07:43:46;;;;;;;6.15;1.48;;;11.50;99.90;;;;;;5090159;28;20040;-75
2022/10/19 07:46:15;;;;;;;7.03;1.20;;;11.50;99.90;;;;;;5063799;28;20087;-74
2022/10/19 07:48:41;;;;;;;6.80;1.25;;;11.50;99.90;;;;;;5079330;28;20035;-74
2022/10/19 07:51:09;;;;;;;8.80;1.33;;;11.60;99.90;;;;;;5067684;28;20039;-74
2022/10/19 07:53:36;;;;;;;7.97;1.35;;;11.60;99.90;;;;;;5093280;28;20040;-76
2022/10/19 07:56:07;;;;;;;8.73;1.70;;;11.70;99.90;;;;;;5073591;28;20032;-75
2022/10/19 07:58:34;;;;;;;8.43;1.27;;;11.70;99.90;;;;;;5098920;28;20062;-76
2022/10/19 08:01:08;;;;;;;4.82;1.10;;;11.80;99.90;;;;;;5076461;28;20036;-74
2022/10/19 08:03:34;;;;;;;;;;;11.70;99.90;;;;;;5100560;28;20352;-76
2022/10/19 08:06:11;;;;;;;8.10;1.65;;;11.70;99.90;;;;;;5100243;28;19955;-74
2022/10/19 08:08:37;;;;;;;6.47;1.45;;;11.80;99.90;;;;;;5108073;28;20023;-76
2022/10/19 08:11:12;;;;;;;6.63;1.50;;;11.80;99.90;;;;;;5103117;28;20044;-74
2022/10/19 08:13:38;;;;;;;6.10;1.67;;;11.90;99.90;;;;;;5082468;28;20035;-75
2022/10/19 08:16:04;;;;;;;5.30;1.60;;;12.00;99.90;;;;;;5099943;28;20035;-74
2022/10/19 08:18:31;;;;;;;6.00;1.60;;;12.00;99.90;;;;;;5086023;28;20035;-76
2022/10/19 08:20:56;;;;;;;9.82;1.70;;;12.00;99.90;;;;;;5082256;28;20032;-73
2022/10/19 08:23:22;;;;;;;8.30;1.90;;;12.10;99.90;;;;;;5080922;28;20035;-73
2022/10/19 08:25:49;;;;;;;5.53;1.65;;;12.10;99.90;;;;;;5100039;28;20024;-73
2022/10/19 08:28:14;;;;;;;5.43;1.80;;;12.20;99.90;;;;;;5066200;28;20344;-74
2022/10/19 08:30:40;;;;;;;7.35;1.75;;;12.20;99.90;;;;;;5085151;28;20055;-74
2022/10/19 08:33:07;;;;;;;4.22;1.25;;;12.20;99.90;;;;;;5078347;28;20122;-75
2022/10/19 08:35:33;;;;;;;7.47;1.50;;;12.20;99.90;;;;;;5083152;28;20230;-73
2022/10/19 08:38:05;;;;;;;4.90;1.23;;;12.30;99.90;;;;;;5078258;28;20070;-72
2022/10/19 08:40:31;;;;;;;7.38;1.40;;;12.30;99.90;;;;;;5091993;28;20067;-74
2022/10/19 08:42:59;;;;;;;4.65;1.20;;;12.30;99.90;;;;;;5098510;28;20055;-75
2022/10/19 08:45:34;;;;;;;6.60;1.38;;;12.30;99.90;;;;;;5092529;28;20040;-74
2022/10/19 08:48:16;;;;;;;;;;;12.40;99.90;;;;;;5076058;28;20438;-73
2022/10/19 08:50:44;;;;;;;3.28;1.27;;;12.30;99.90;;;;;;5062595;28;19989;-74
2022/10/19 08:53:17;;;;;;;7.32;1.48;;;12.40;99.90;;;;;;5088783;28;20056;-74
2022/10/19 08:55:54;;;;;;;5.57;1.20;;;12.50;99.90;;;;;;5076805;28;20036;-73
2022/10/19 08:58:41;;;;;;;8.65;1.73;;;12.50;99.90;;;;;;5087732;28;20116;-73
2022/10/19 09:01:16;;;;;;;11.35;1.70;;;12.40;99.90;;;;;;5079573;28;20032;-75
2022/10/19 09:03:51;;;;;;;;;;;12.50;99.90;;;;;;5079465;28;20168;-76
2022/10/19 09:06:24;;;;;;;6.97;1.60;;;12.40;99.90;;;;;;5090170;28;19920;-73
2022/10/19 09:08:52;;;;;;;6.60;1.70;;;12.30;99.90;;;;;;5086927;28;20094;-75
2022/10/19 09:11:34;;;;;;;6.75;1.20;;;12.30;99.90;;;;;;5078295;28;20280;-73
2022/10/19 09:14:15;;;;;;;7.90;1.88;;;12.40;99.90;;;;;;5086937;28;20051;-74
2022/10/19 09:16:41;;;;;;;7.43;1.73;;;12.50;99.90;;;;;;5074615;28;20032;-74
2022/10/19 09:19:24;;;;;;;9.02;1.85;;;12.50;99.90;;;;;;5085446;28;20041;-73
2022/10/19 09:22:23;;;;;;;4.40;1.38;;;12.40;99.90;;;;;;5095988;28;20116;-73
2022/10/19 09:25:22;;;;;;;6.20;1.17;;;12.50;99.90;;;;;;5100431;28;20081;-71
2022/10/19 09:27:56;;;;;;;5.07;1.35;;;12.60;99.90;;;;;;5089620;28;20082;-73
2022/10/19 09:30:23;;;;;;;6.43;1.25;;;12.60;99.90;;;;;;5089538;28;20074;-73
2022/10/19 09:32:57;;;;;;;6.13;1.25;;;12.50;99.90;;;;;;5097580;28;20040;-72
2022/10/19 09:35:37;;;;;;;6.53;1.23;;;12.60;99.90;;;;;;5092785;28;20044;-75
2022/10/19 09:38:06;;;;;;;4.82;1.23;;;12.70;99.90;;;;;;5091016;28;20264;-76
2022/10/19 09:40:34;;;;;;;7.13;1.83;;;12.70;99.90;;;;;;5101980;28;20051;-75
2022/10/19 09:43:08;;;;;;;6.28;1.40;;;12.70;99.90;;;;;;5070767;28;20024;-75
2022/10/19 09:46:01;;;;;;;5.82;2.17;;;12.60;99.90;;;;;;5092028;28;20099;-73
2022/10/19 09:48:48;;;;;;;8.80;1.55;;;12.60;99.90;;;;;;5088999;28;20033;-75
2022/10/19 09:51:15;;;;;;;9.30;1.75;;;12.60;99.90;;;;;;5093892;28;20030;-75
2022/10/19 09:53:46;;;;;;;7.05;1.70;;;12.70;99.90;;;;;;5085223;28;20028;-73
2022/10/19 09:56:20;;;;;;;8.35;1.25;;;12.70;99.90;;;;;;5101734;28;20227;-74
2022/10/19 09:58:51;;;;;;;5.90;1.55;;;12.80;99.90;;;;;;5096014;28;20032;-76
2022/10/19 10:01:36;;;;;;;6.78;1.73;;;12.90;99.90;;;;;;5081726;28;20032;-77
2022/10/19 10:04:16;;;;;;;6.28;1.58;;;12.70;99.90;;;;;;5101089;28;20034;-78
2022/10/19 10:06:43;;;;;;;3.97;1.13;;;12.80;99.90;;;;;;5093340;28;20194;-77
2022/10/19 10:09:18;;;;;;;7.55;1.83;;;12.90;99.90;;;;;;5102335;28;20303;-78
2022/10/19 10:11:47;;;;;;;8.55;1.50;;;12.80;99.90;;;;;;5077535;28;20074;-75
2022/10/19 10:14:20;;;;;;;13.57;2.03;;;12.80;99.90;;;;;;5102016;28;20059;-76
2022/10/19 10:16:46;;;;;;;5.85;1.52;;;12.70;99.90;;;;;;5084753;28;20307;-75
2022/10/19 10:19:15;;;;;;;9.85;1.73;;;12.80;99.90;;;;;;5100922;28;20246;-79
2022/10/19 10:21:55;;;;;;;2.42;0.90;;;12.80;99.90;;;;;;5105866;28;20031;-78
2022/10/19 10:24:32;;;;;;;6.25;1.30;;;12.80;99.90;;;;;;5122184;28;20039;-78
2022/10/19 10:27:03;;;;;;;8.90;1.65;;;12.80;99.90;;;;;;5100352;28;20032;-78
2022/10/19 10:29:37;;;;;;;7.80;1.92;;;12.80;99.90;;;;;;5100836;28;20036;-78
2022/10/19 10:32:05;;;;;;;8.60;1.92;;;12.80;99.90;;;;;;5077285;28;20219;-76
2022/10/19 10:34:36;;;;;;;8.30;1.67;;;13.00;99.90;;;;;;5081921;28;20279;-76
2022/10/19 10:37:09;;;;;;;8.70;1.30;;;13.00;99.90;;;;;;5094571;28;20124;-76
2022/10/19 10:39:42;;;;;;;6.95;1.20;;;13.10;99.90;;;;;;5106742;28;20035;-68
2022/10/19 10:42:18;;;;;;;7.22;1.88;;;13.20;99.90;;;;;;5080273;28;20045;-69
2022/10/19 10:44:51;;;;;;;7.22;1.75;;;13.30;99.90;;;;;;5080910;28;20090;-70
2022/10/19 10:47:21;;;;;;;6.07;1.52;;;13.20;99.90;;;;;;5084068;28;20044;-69
2022/10/19 10:49:55;;;;;;;5.28;1.33;;;13.20;99.90;;;;;;5106141;28;20042;-66
2022/10/19 10:52:21;;;;;;;4.63;1.23;;;13.20;99.90;;;;;;5104753;28;20227;-76
2022/10/19 10:54:58;;;;;;;6.78;1.60;;;13.10;99.90;;;;;;5077364;28;20058;-76
2022/10/19 10:57:26;;;;;;;7.30;1.67;;;13.00;99.90;;;;;;5102181;28;20065;-75
2022/10/19 11:00:06;;;;;;;5.60;1.20;;;13.10;99.90;;;;;;5106055;28;20034;-79
2022/10/19 11:02:47;;;;;;;7.43;1.42;;;13.20;99.90;;;;;;5092155;28;20031;-75
2022/10/19 11:05:30;;;;;;;6.78;1.55;;;13.20;99.90;;;;;;5094879;28;20032;-74
2022/10/19 11:08:03;;;;;;;7.28;1.85;;;13.20;99.90;;;;;;5095487;28;20040;-73
2022/10/19 11:10:35;;;;;;;3.05;1.05;;;13.30;99.90;;;;;;5094772;28;20074;-76
2022/10/19 11:13:14;;;;;;;5.50;1.40;;;13.20;99.90;;;;;;5104097;28;20102;-80
2022/10/19 11:16:04;;;;;;;8.68;1.65;;;13.20;99.90;;;;;;5081991;28;20024;-77
2022/10/19 11:18:33;;;;;;;5.70;1.20;;;13.20;99.90;;;;;;5098138;28;20059;-76
2022/10/19 11:21:16;;;;;;;8.40;1.73;;;13.30;99.90;;;;;;5074390;28;20035;-77
2022/10/19 11:24:32;;;;;;;4.43;1.20;;;13.30;99.90;;;;;;5083703;28;20218;-74
2022/10/19 11:27:13;;;;;;;7.10;1.30;;;13.40;99.90;;;;;;5108334;28;20334;-75
2022/10/19 11:29:38;;;;;;;9.00;2.22;;;13.20;99.90;;;;;;5080767;28;20344;-74
2022/10/19 11:32:39;;;;;;;8.10;1.70;;;13.30;99.90;;;;;;5114947;28;20035;-74
2022/10/19 11:35:07;;;;;;;5.85;1.70;;;13.10;99.90;;;;;;5078996;28;20079;-77
2022/10/19 11:37:40;;;;;;;5.72;1.10;;;13.00;99.90;;;;;;5081180;28;20055;-74
2022/10/19 11:40:23;;;;;;;6.57;1.67;;;13.10;99.90;;;;;;5091340;28;20044;-75
2022/10/19 11:43:01;;;;;;;5.40;2.28;;;13.20;99.90;;;;;;5105130;28;20039;-71
2022/10/19 11:45:27;;;;;;;5.60;1.52;;;13.40;99.90;;;;;;5082550;28;20044;-78
2022/10/19 11:47:58;;;;;;;5.03;1.25;;;13.40;99.90;;;;;;5100549;28;20032;-76
2022/10/19 11:50:53;;;;;;;6.50;1.52;;;13.50;99.90;;;;;;5081423;28;20040;-74
2022/10/19 11:53:27;;;;;;;;;;;13.40;99.90;;;;;;5087403;28;20032;-75
2022/10/19 11:56:10;;;;;;;3.33;1.33;;;13.40;99.90;;;;;;5083098;28;19918;-75
2022/10/19 11:58:56;;;;;;;5.70;1.13;;;13.20;99.90;;;;;;5100608;28;20621;-74
2022/10/19 12:01:44;;;;;;;6.00;1.70;;;13.20;99.90;;;;;;5083269;28;20040;-79
2022/10/19 12:04:17;;;;;;;11.00;1.38;;;13.10;99.90;;;;;;5084350;28;20580;-78
2022/10/19 12:06:52;;;;;;;7.63;1.20;;;13.00;99.90;;;;;;5080392;28;20040;-74
2022/10/19 12:09:40;;;;;;;5.30;1.40;;;13.20;99.90;;;;;;5096243;28;20103;-74
2022/10/19 12:12:32;;;;;;;7.30;1.35;;;13.20;99.90;;;;;;5063276;28;20192;-76
2022/10/19 12:15:13;;;;;;;4.65;1.55;;;13.30;99.90;;;;;;5079654;28;20044;-77
2022/10/19 12:17:42;;;;;;;7.07;2.05;;;13.30;99.90;;;;;;5080243;28;20044;-74
2022/10/19 12:20:33;;;;;;;6.53;1.55;;;13.40;99.90;;;;;;5110344;28;20315;-75
2022/10/19 12:23:04;;;;;;;5.70;1.50;;;13.50;99.90;;;;;;5075297;28;20253;-75
2022/10/19 12:25:29;;;;;;;8.02;1.98;;;13.80;99.90;;;;;;5097997;28;20091;-77
2022/10/19 12:27:56;;;;;;;1.75;1.20;;;13.60;99.90;;;;;;5100461;28;20090;-74
2022/10/19 12:30:23;;;;;;;4.07;1.58;;;13.50;99.90;;;;;;5062191;28;20039;-76
2022/10/19 12:33:12;;;;;;;6.20;1.80;;;13.30;99.90;;;;;;5078844;28;20039;-76
2022/10/19 12:35:54;;;;;;;5.18;2.00;;;13.20;99.90;;;;;;5064572;28;20037;-73
2022/10/19 12:38:26;;;;;;;4.30;1.65;;;13.20;99.90;;;;;;5083645;28;20037;-75
2022/10/19 12:41:04;;;;;;;6.28;1.80;;;13.10;99.90;;;;;;5099461;28;20063;-74
2022/10/19 12:43:55;;;;;;;8.82;1.77;;;13.00;99.90;;;;;;5097844;28;20110;-78
2022/10/19 12:46:39;;;;;;;4.32;1.45;;;13.00;99.90;;;;;;5096807;28;20046;-71
2022/10/19 12:49:30;;;;;;;2.70;1.30;;;13.10;99.90;;;;;;5080049;28;20409;-75
2022/10/19 12:51:58;;;;;;;6.72;2.00;;;12.90;99.90;;;;;;5079705;28;20052;-77
2022/10/19 12:54:33;;;;;;;6.57;1.70;;;13.00;99.90;;;;;;5063783;28;20093;-73
2022/10/19 12:57:01;;;;;;;6.78;1.67;;;13.00;99.90;;;;;;5111873;28;20089;-75
2022/10/19 12:59:33;;;;;;;6.95;1.67;;;13.00;99.90;;;;;;5098897;28;20063;-79
2022/10/19 13:02:00;;;;;;;5.78;1.40;;;12.90;99.90;;;;;;5081879;28;20031;-77
2022/10/19 13:04:30;;;;;;;6.13;1.45;;;13.00;99.90;;;;;;5079634;28;20036;-74
2022/10/19 13:06:55;;;;;;;4.07;1.50;;;12.90;99.90;;;;;;5094303;28;20078;-76
2022/10/19 13:09:40;;;;;;;3.75;1.50;;;12.90;99.90;;;;;;5079567;28;20051;-75
2022/10/19 13:12:12;;;;;;;;;;;12.80;99.90;;;;;;5082623;28;20051;-74
2022/10/19 13:15:27;;;;;;;5.53;1.95;;;12.70;99.90;;;;;;5105546;28;20194;-77